Time,TemperatureF,DewpointF,PressureIn,WindDirection,WindDirectionDegrees,WindSpeedMPH,WindSpeedGustMPH,Humidity,HourlyPrecipIn,Conditions,Clouds,dailyrainin,SoftwareType,DateUTC
2013-05-02 00:01:00,37.8,36.5,30.26,NNE,32,19.0,19.0,95,0.06,,,0.00,Wunderground v.1.15,2013-05-02 05:01:00,
2013-05-02 00:11:00,37.6,36.3,30.29,NNW,333,18.0,18.0,95,0.14,,,0.02,Wunderground v.1.15,2013-05-02 05:11:00,
2013-05-02 00:21:00,37.2,35.9,30.28,North,358,18.0,21.0,95,0.49,,,0.05,Wunderground v.1.15,2013-05-02 05:21:00,
2013-05-02 00:31:00,36.9,35.6,30.26,NNE,12,22.0,22.0,95,0.09,,,0.08,Wunderground v.1.15,2013-05-02 05:31:00,
2013-05-02 00:41:00,36.7,35.7,30.32,NNW,343,18.0,18.0,96,0.13,,,0.10,Wunderground v.1.15,2013-05-02 05:41:00,
2013-05-02 00:52:00,36.7,35.7,30.28,NNE,16,18.0,18.0,96,0.36,,,0.13,Wunderground v.1.15,2013-05-02 05:52:00,
2013-05-02 01:02:00,36.5,35.5,30.27,NNE,26,19.0,20.0,96,0.14,,,0.16,Wunderground v.1.15,2013-05-02 06:02:00,
2013-05-02 01:12:00,36.5,35.5,30.28,NNE,15,22.0,22.0,96,0.24,,,0.22,Wunderground v.1.15,2013-05-02 06:12:00,
2013-05-02 01:22:00,36.6,35.6,30.36,NW,311,14.0,14.0,96,0.84,,,0.34,Wunderground v.1.15,2013-05-02 06:22:00,
2013-05-02 01:32:00,36.7,35.7,30.29,NNE,26,18.0,19.0,96,0.14,,,0.39,Wunderground v.1.15,2013-05-02 06:32:00,
2013-05-02 01:42:00,36.7,35.7,30.32,North,349,17.0,19.0,96,0.14,,,0.42,Wunderground v.1.15,2013-05-02 06:42:00,
2013-05-02 01:52:00,36.9,35.9,30.31,NNE,31,19.0,30.0,96,0.05,,,0.42,Wunderground v.1.15,2013-05-02 06:52:00,
2013-05-02 02:01:00,36.9,35.9,30.31,North,4,19.0,19.0,96,0.00,,,0.42,Wunderground v.1.15,2013-05-02 07:01:00,
2013-05-02 02:11:00,37.0,36.0,30.32,NE,41,17.0,17.0,96,0.00,,,0.42,Wunderground v.1.15,2013-05-02 07:11:00,
2013-05-02 02:21:00,37.0,36.0,30.33,NE,53,17.0,22.0,96,0.00,,,0.42,Wunderground v.1.15,2013-05-02 07:21:00,
2013-05-02 02:31:00,37.0,36.0,30.33,North,3,20.0,20.0,96,0.00,,,0.42,Wunderground v.1.15,2013-05-02 07:31:00,
2013-05-02 02:41:00,37.1,36.1,30.32,NNE,14,19.0,19.0,96,0.00,,,0.42,Wunderground v.1.15,2013-05-02 07:41:00,
2013-05-02 02:51:00,37.0,36.0,30.32,NNE,30,19.0,20.0,96,0.00,,,0.42,Wunderground v.1.15,2013-05-02 07:51:00,
2013-05-02 03:01:00,37.0,36.0,30.33,NE,41,19.0,19.0,96,0.00,,,0.42,Wunderground v.1.15,2013-05-02 08:01:00,
2013-05-02 03:11:00,36.9,35.9,30.34,NNE,22,18.0,18.0,96,0.00,,,0.42,Wunderground v.1.15,2013-05-02 08:11:00,
2013-05-02 03:21:00,36.9,35.9,30.33,NW,308,21.0,21.0,96,0.00,,,0.42,Wunderground v.1.15,2013-05-02 08:21:00,
2013-05-02 03:31:00,36.8,35.8,30.34,NNE,14,18.0,18.0,96,0.00,,,0.42,Wunderground v.1.15,2013-05-02 08:31:00,
2013-05-02 03:41:00,36.6,35.6,30.35,North,360,19.0,19.0,96,0.00,,,0.42,Wunderground v.1.15,2013-05-02 08:41:00,
2013-05-02 03:51:00,36.3,35.3,30.35,NNE,30,21.0,26.0,96,0.00,,,0.43,Wunderground v.1.15,2013-05-02 08:51:00,
2013-05-02 04:01:00,36.3,35.3,30.38,NNW,346,19.0,19.0,96,0.00,,,0.43,Wunderground v.1.15,2013-05-02 09:01:00,
2013-05-02 04:11:00,36.2,35.2,30.36,North,359,19.0,23.0,96,0.00,,,0.43,Wunderground v.1.15,2013-05-02 09:11:00,
2013-05-02 04:21:00,36.1,35.3,30.39,NW,322,16.0,19.0,97,0.00,,,0.43,Wunderground v.1.15,2013-05-02 09:21:00,
2013-05-02 04:31:00,36.0,35.2,30.37,NNE,15,20.0,29.0,97,0.00,,,0.43,Wunderground v.1.15,2013-05-02 09:31:00,
2013-05-02 04:42:00,36.0,35.2,30.37,NNE,30,21.0,21.0,97,0.00,,,0.43,Wunderground v.1.15,2013-05-02 09:42:00,
2013-05-02 04:52:00,36.1,35.3,30.39,NW,312,20.0,20.0,97,0.00,,,0.44,Wunderground v.1.15,2013-05-02 09:52:00,
2013-05-02 05:01:00,36.0,35.2,30.39,NNE,23,18.0,22.0,97,0.00,,,0.44,Wunderground v.1.15,2013-05-02 10:01:00,
2013-05-02 05:12:00,35.7,34.9,30.39,North,352,17.0,19.0,97,0.00,,,0.44,Wunderground v.1.15,2013-05-02 10:12:00,
2013-05-02 05:22:00,35.4,34.6,30.39,NE,37,17.0,17.0,97,0.00,,,0.45,Wunderground v.1.15,2013-05-02 10:22:00,
2013-05-02 05:32:00,35.1,34.3,30.41,NNW,347,21.0,21.0,97,0.00,,,0.45,Wunderground v.1.15,2013-05-02 10:32:00,
2013-05-02 05:42:00,35.0,34.2,30.39,NNE,21,15.0,31.0,97,0.00,,,0.46,Wunderground v.1.15,2013-05-02 10:42:00,
2013-05-02 05:52:00,34.8,34.0,30.40,North,352,21.0,21.0,97,0.05,,,0.47,Wunderground v.1.15,2013-05-02 10:52:00,
2013-05-02 06:02:00,34.7,33.9,30.41,NE,39,19.0,26.0,97,0.07,,,0.48,Wunderground v.1.15,2013-05-02 11:02:00,
2013-05-02 06:11:00,34.7,33.9,30.40,NNE,13,23.0,24.0,97,0.00,,,0.48,Wunderground v.1.15,2013-05-02 11:11:00,
2013-05-02 06:21:00,34.7,33.9,30.40,NNE,24,23.0,32.0,97,0.00,,,0.49,Wunderground v.1.15,2013-05-02 11:21:00,
2013-05-02 06:31:00,34.7,33.9,30.43,WNW,293,23.0,23.0,97,0.00,,,0.49,Wunderground v.1.15,2013-05-02 11:31:00,
2013-05-02 06:41:00,34.6,33.8,30.43,NNW,333,22.0,22.0,97,0.00,,,0.49,Wunderground v.1.15,2013-05-02 11:41:00,
2013-05-02 06:51:00,34.6,33.8,30.44,NNW,338,21.0,21.0,97,0.00,,,0.49,Wunderground v.1.15,2013-05-02 11:51:00,
2013-05-02 07:01:00,34.7,33.9,30.44,NNW,328,22.0,22.0,97,0.00,,,0.49,Wunderground v.1.15,2013-05-02 12:01:00,
2013-05-02 07:11:00,34.8,34.0,30.46,North,352,21.0,25.0,97,0.00,,,0.49,Wunderground v.1.15,2013-05-02 12:11:00,
2013-05-02 07:21:00,34.9,34.1,30.45,NNE,26,24.0,25.0,97,0.00,,,0.49,Wunderground v.1.15,2013-05-02 12:21:00,
2013-05-02 07:31:00,35.1,34.3,30.45,NNE,18,24.0,24.0,97,0.00,,,0.49,Wunderground v.1.15,2013-05-02 12:31:00,
2013-05-02 07:41:00,35.1,34.3,30.48,North,10,24.0,24.0,97,0.00,,,0.49,Wunderground v.1.15,2013-05-02 12:41:00,
2013-05-02 07:51:00,35.1,34.3,30.47,NNE,15,23.0,23.0,97,0.00,,,0.49,Wunderground v.1.15,2013-05-02 12:51:00,
2013-05-02 08:01:00,34.7,33.9,30.45,NNE,20,23.0,29.0,97,0.00,,,0.49,Wunderground v.1.15,2013-05-02 13:01:00,
2013-05-02 08:11:00,34.4,33.6,30.46,NE,39,22.0,26.0,97,0.00,,,0.49,Wunderground v.1.15,2013-05-02 13:11:00,
2013-05-02 08:22:00,34.2,33.4,30.46,NNE,30,22.0,22.0,97,0.00,,,0.49,Wunderground v.1.15,2013-05-02 13:22:00,
2013-05-02 08:31:00,33.6,32.8,30.47,NNW,348,22.0,26.0,97,0.00,,,0.50,Wunderground v.1.15,2013-05-02 13:31:00,
2013-05-02 08:41:00,33.8,33.0,30.50,NNW,348,20.0,20.0,97,0.00,,,0.50,Wunderground v.1.15,2013-05-02 13:41:00,
2013-05-02 08:51:00,34.0,33.2,30.50,North,11,18.0,18.0,97,0.04,,,0.51,Wunderground v.1.15,2013-05-02 13:51:00,
2013-05-02 09:02:00,34.2,33.4,30.50,North,6,18.0,18.0,97,0.00,,,0.51,Wunderground v.1.15,2013-05-02 14:02:00,
2013-05-02 09:12:00,34.3,33.5,30.51,NE,51,16.0,16.0,97,0.00,,,0.51,Wunderground v.1.15,2013-05-02 14:12:00,
2013-05-02 09:22:00,34.3,33.5,30.52,NW,310,18.0,18.0,97,0.00,,,0.51,Wunderground v.1.15,2013-05-02 14:22:00,
2013-05-02 09:31:00,34.6,33.8,30.51,NNE,20,15.0,19.0,97,0.00,,,0.51,Wunderground v.1.15,2013-05-02 14:31:00,
2013-05-02 09:41:00,34.6,33.8,30.51,NNE,25,19.0,20.0,97,0.00,,,0.51,Wunderground v.1.15,2013-05-02 14:41:00,
2013-05-02 09:52:00,34.9,34.1,30.51,East,80,17.0,19.0,97,0.00,,,0.51,Wunderground v.1.15,2013-05-02 14:52:00,
2013-05-02 10:01:00,35.1,34.3,30.51,NNE,28,19.0,19.0,97,0.00,,,0.51,Wunderground v.1.15,2013-05-02 15:01:00,
2013-05-02 10:11:00,35.0,34.2,30.50,WNW,297,19.0,19.0,97,0.00,,,0.52,Wunderground v.1.15,2013-05-02 15:11:00,
2013-05-02 10:21:00,35.3,34.5,30.50,NNE,15,18.0,20.0,97,0.00,,,0.52,Wunderground v.1.15,2013-05-02 15:21:00,
2013-05-02 10:31:00,35.4,34.6,30.51,North,1,19.0,29.0,97,0.00,,,0.52,Wunderground v.1.15,2013-05-02 15:31:00,
2013-05-02 10:41:00,35.3,34.5,30.52,North,6,21.0,33.0,97,0.00,,,0.52,Wunderground v.1.15,2013-05-02 15:41:00,
2013-05-02 10:51:00,35.5,34.7,30.52,NW,321,19.0,19.0,97,0.00,,,0.52,Wunderground v.1.15,2013-05-02 15:51:00,
2013-05-02 11:01:00,35.7,34.9,30.53,NNE,21,22.0,22.0,97,0.00,,,0.52,Wunderground v.1.15,2013-05-02 16:01:00,
2013-05-02 11:11:00,35.8,35.0,30.54,NNE,33,23.0,30.0,97,0.00,,,0.52,Wunderground v.1.15,2013-05-02 16:11:00,
2013-05-02 11:21:00,35.7,34.9,30.53,North,11,23.0,27.0,97,0.00,,,0.52,Wunderground v.1.15,2013-05-02 16:21:00,
2013-05-02 11:31:00,36.1,35.3,30.53,North,352,25.0,27.0,97,0.00,,,0.52,Wunderground v.1.15,2013-05-02 16:31:00,
2013-05-02 11:41:00,36.7,35.9,30.53,NE,46,26.0,29.0,97,0.00,,,0.52,Wunderground v.1.15,2013-05-02 16:41:00,
2013-05-02 11:51:00,37.8,36.8,30.55,NE,41,21.0,21.0,96,0.00,,,0.52,Wunderground v.1.15,2013-05-02 16:51:00,
2013-05-02 12:01:00,37.9,36.1,30.55,North,9,23.0,23.0,93,0.00,,,0.52,Wunderground v.1.15,2013-05-02 17:01:00,
2013-05-02 12:12:00,38.1,36.0,30.55,NNE,15,21.0,21.0,92,0.00,,,0.52,Wunderground v.1.15,2013-05-02 17:12:00,
2013-05-02 12:22:00,38.3,35.6,30.55,North,10,22.0,22.0,90,0.00,,,0.52,Wunderground v.1.15,2013-05-02 17:22:00,
2013-05-02 12:32:00,38.6,35.1,30.55,North,11,20.0,22.0,87,0.00,,,0.52,Wunderground v.1.15,2013-05-02 17:32:00,
2013-05-02 12:42:00,38.9,35.1,30.55,NNW,347,16.0,16.0,86,0.00,,,0.52,Wunderground v.1.15,2013-05-02 17:42:00,
2013-05-02 12:52:00,39.4,35.3,30.53,North,360,15.0,19.0,85,0.00,,,0.52,Wunderground v.1.15,2013-05-02 17:52:00,
2013-05-02 13:02:00,40.2,35.8,30.53,NE,34,15.0,15.0,84,0.00,,,0.52,Wunderground v.1.15,2013-05-02 18:02:00,
2013-05-02 13:11:00,40.9,35.5,30.53,NE,37,14.0,19.0,81,0.00,,,0.52,Wunderground v.1.15,2013-05-02 18:11:00,
2013-05-02 13:21:00,41.7,34.0,30.52,NNW,345,17.0,19.0,74,0.00,,,0.52,Wunderground v.1.15,2013-05-02 18:21:00,
2013-05-02 13:31:00,42.2,33.5,30.53,NE,41,21.0,21.0,71,0.00,,,0.52,Wunderground v.1.15,2013-05-02 18:31:00,
2013-05-02 13:41:00,42.7,29.8,30.53,NNE,28,21.0,21.0,60,0.00,,,0.52,Wunderground v.1.15,2013-05-02 18:41:00,
2013-05-02 13:51:00,43.5,32.5,30.54,NNE,18,18.0,18.0,65,0.00,,,0.52,Wunderground v.1.15,2013-05-02 18:51:00,
2013-05-02 14:01:00,44.3,30.0,30.53,NNE,26,19.0,24.0,57,0.00,,,0.52,Wunderground v.1.15,2013-05-02 19:01:00,
2013-05-02 14:11:00,44.4,30.1,30.53,NE,35,24.0,24.0,57,0.00,,,0.52,Wunderground v.1.15,2013-05-02 19:11:00,
2013-05-02 14:21:00,45.4,31.9,30.52,NNE,27,19.0,19.0,59,0.00,,,0.52,Wunderground v.1.15,2013-05-02 19:21:00,
2013-05-02 14:31:00,46.5,31.6,30.52,NE,34,22.0,24.0,56,0.00,,,0.52,Wunderground v.1.15,2013-05-02 19:31:00,
2013-05-02 14:41:00,46.5,29.3,30.52,NNE,27,23.0,32.0,51,0.00,,,0.52,Wunderground v.1.15,2013-05-02 19:41:00,
2013-05-02 14:51:00,46.9,28.7,30.53,NNE,25,20.0,26.0,49,0.00,,,0.52,Wunderground v.1.15,2013-05-02 19:51:00,
2013-05-02 15:01:00,47.2,29.5,30.52,NNE,18,23.0,29.0,50,0.00,,,0.52,Wunderground v.1.15,2013-05-02 20:01:00,
2013-05-02 15:11:00,47.3,30.5,30.52,NNE,21,23.0,25.0,52,0.00,,,0.52,Wunderground v.1.15,2013-05-02 20:11:00,
2013-05-02 15:21:00,47.4,31.6,30.52,NNE,14,23.0,23.0,54,0.00,,,0.52,Wunderground v.1.15,2013-05-02 20:21:00,
2013-05-02 15:31:00,47.8,30.5,30.52,NE,54,21.0,24.0,51,0.00,,,0.52,Wunderground v.1.15,2013-05-02 20:31:00,
2013-05-02 15:41:00,48.1,31.3,30.52,NW,314,20.0,20.0,52,0.00,,,0.52,Wunderground v.1.15,2013-05-02 20:41:00,
2013-05-02 15:52:00,47.6,29.4,30.52,North,8,22.0,24.0,49,0.00,,,0.52,Wunderground v.1.15,2013-05-02 20:52:00,
2013-05-02 16:02:00,47.6,26.2,30.51,NE,44,23.0,23.0,43,0.00,,,0.52,Wunderground v.1.15,2013-05-02 21:02:00,
2013-05-02 16:12:00,48.1,29.3,30.51,NE,52,20.0,21.0,48,0.00,,,0.52,Wunderground v.1.15,2013-05-02 21:12:00,
2013-05-02 16:21:00,48.5,29.7,30.51,North,357,20.0,20.0,48,0.00,,,0.52,Wunderground v.1.15,2013-05-02 21:21:00,
2013-05-02 16:31:00,48.8,29.4,30.51,NNE,13,22.0,22.0,47,0.00,,,0.52,Wunderground v.1.15,2013-05-02 21:31:00,
2013-05-02 16:41:00,48.4,26.3,30.50,NNE,29,21.0,26.0,42,0.00,,,0.52,Wunderground v.1.15,2013-05-02 21:41:00,
2013-05-02 16:51:00,48.6,27.6,30.50,NE,46,21.0,25.0,44,0.00,,,0.52,Wunderground v.1.15,2013-05-02 21:51:00,
2013-05-02 17:01:00,48.7,24.2,30.50,NNE,21,23.0,25.0,38,0.00,,,0.52,Wunderground v.1.15,2013-05-02 22:01:00,
2013-05-02 17:11:00,48.4,24.6,30.50,NNE,16,25.0,31.0,39,0.00,,,0.52,Wunderground v.1.15,2013-05-02 22:11:00,
2013-05-02 17:21:00,48.8,24.3,30.50,NNE,23,25.0,28.0,38,0.00,,,0.52,Wunderground v.1.15,2013-05-02 22:21:00,
2013-05-02 17:31:00,48.9,27.4,30.50,NE,44,21.0,37.0,43,0.00,,,0.52,Wunderground v.1.15,2013-05-02 22:31:00,
2013-05-02 17:41:00,49.2,28.2,30.50,NE,46,22.0,22.0,44,0.00,,,0.52,Wunderground v.1.15,2013-05-02 22:41:00,
2013-05-02 17:51:00,49.4,28.9,30.50,NE,44,19.0,24.0,45,0.00,,,0.52,Wunderground v.1.15,2013-05-02 22:51:00,
2013-05-02 18:01:00,49.4,29.5,30.50,NNE,25,21.0,21.0,46,0.00,,,0.52,Wunderground v.1.15,2013-05-02 23:01:00,
2013-05-02 18:11:00,49.5,29.6,30.49,North,10,19.0,21.0,46,0.00,,,0.52,Wunderground v.1.15,2013-05-02 23:11:00,
2013-05-02 18:21:00,49.7,31.3,30.49,North,4,18.0,18.0,49,0.00,,,0.52,Wunderground v.1.15,2013-05-02 23:21:00,
2013-05-02 18:31:00,49.7,31.3,30.49,WNW,302,16.0,19.0,49,0.00,,,0.52,Wunderground v.1.15,2013-05-02 23:31:00,
2013-05-02 18:41:00,49.4,31.5,30.49,North,11,18.0,18.0,50,0.00,,,0.52,Wunderground v.1.15,2013-05-02 23:41:00,
2013-05-02 18:51:00,49.4,31.0,30.49,NNE,32,16.0,23.0,49,0.00,,,0.52,Wunderground v.1.15,2013-05-02 23:51:00,
2013-05-02 19:01:00,49.3,30.9,30.49,North,8,16.0,19.0,49,0.00,,,0.52,Wunderground v.1.15,2013-05-03 00:01:00,
2013-05-02 19:12:00,49.0,31.2,30.49,NNE,25,16.0,16.0,50,0.00,,,0.52,Wunderground v.1.15,2013-05-03 00:12:00,
2013-05-02 19:22:00,48.6,31.8,30.49,NE,53,16.0,16.0,52,0.00,,,0.52,Wunderground v.1.15,2013-05-03 00:22:00,
2013-05-02 19:32:00,48.3,31.0,30.49,NNE,27,16.0,19.0,51,0.00,,,0.52,Wunderground v.1.15,2013-05-03 00:32:00,
2013-05-02 19:42:00,47.8,31.5,30.49,NNE,24,15.0,15.0,53,0.00,,,0.52,Wunderground v.1.15,2013-05-03 00:42:00,
2013-05-02 19:52:00,47.2,31.8,30.49,NNE,25,15.0,19.0,55,0.00,,,0.52,Wunderground v.1.15,2013-05-03 00:52:00,
2013-05-02 20:02:00,46.7,31.8,30.49,NNE,20,14.0,14.0,56,0.00,,,0.52,Wunderground v.1.15,2013-05-03 01:02:00,
2013-05-02 20:11:00,45.9,31.5,30.49,NNE,20,13.0,13.0,57,0.00,,,0.52,Wunderground v.1.15,2013-05-03 01:11:00,
2013-05-02 20:21:00,45.2,31.7,30.50,NNE,29,12.0,19.0,59,0.00,,,0.52,Wunderground v.1.15,2013-05-03 01:21:00,
2013-05-02 20:31:00,44.6,32.0,30.49,North,354,10.0,19.0,61,0.00,,,0.52,Wunderground v.1.15,2013-05-03 01:31:00,
2013-05-02 20:41:00,44.4,32.2,30.50,NNE,15,10.0,10.0,62,0.00,,,0.52,Wunderground v.1.15,2013-05-03 01:41:00,
2013-05-02 20:51:00,43.8,32.0,30.50,North,358,7.0,19.0,63,0.00,,,0.52,Wunderground v.1.15,2013-05-03 01:51:00,
2013-05-02 21:01:00,42.9,32.7,30.50,NNW,340,5.0,5.0,67,0.00,,,0.52,Wunderground v.1.15,2013-05-03 02:01:00,
2013-05-02 21:11:00,42.4,32.2,30.50,North,358,5.0,19.0,67,0.00,,,0.52,Wunderground v.1.15,2013-05-03 02:11:00,
2013-05-02 21:21:00,42.2,32.4,30.50,NNE,13,5.0,5.0,68,0.00,,,0.52,Wunderground v.1.15,2013-05-03 02:21:00,
2013-05-02 21:31:00,42.0,31.8,30.50,NNW,348,6.0,6.0,67,0.00,,,0.52,Wunderground v.1.15,2013-05-03 02:31:00,
2013-05-02 21:41:00,41.6,31.8,30.49,NE,44,5.0,5.0,68,0.00,,,0.52,Wunderground v.1.15,2013-05-03 02:41:00,
2013-05-02 21:51:00,40.8,32.1,30.50,NNW,340,4.0,4.0,71,0.00,,,0.52,Wunderground v.1.15,2013-05-03 02:51:00,
2013-05-02 22:01:00,39.7,32.1,30.50,NNW,333,3.0,3.0,74,0.00,,,0.52,Wunderground v.1.15,2013-05-03 03:01:00,
2013-05-02 22:11:00,39.2,31.9,30.50,NNW,337,3.0,3.0,75,0.00,,,0.52,Wunderground v.1.15,2013-05-03 03:11:00,
2013-05-02 22:21:00,38.7,31.8,30.49,NNW,328,2.0,2.0,76,0.00,,,0.52,Wunderground v.1.15,2013-05-03 03:21:00,
2013-05-02 22:31:00,38.4,32.1,30.49,North,349,1.0,10.0,78,0.00,,,0.52,Wunderground v.1.15,2013-05-03 03:31:00,
2013-05-02 22:41:00,37.9,32.3,30.49,NW,311,2.0,2.0,80,0.00,,,0.52,Wunderground v.1.15,2013-05-03 03:41:00,
2013-05-02 22:52:00,37.7,32.1,30.49,NW,313,2.0,10.0,80,0.00,,,0.52,Wunderground v.1.15,2013-05-03 03:52:00,
2013-05-02 23:01:00,37.6,32.0,30.49,NW,311,2.0,10.0,80,0.00,,,0.52,Wunderground v.1.15,2013-05-03 04:01:00,
2013-05-02 23:11:00,37.3,31.7,30.48,NW,307,2.0,10.0,80,0.00,,,0.52,Wunderground v.1.15,2013-05-03 04:11:00,
2013-05-02 23:22:00,37.1,31.8,30.48,NNW,332,2.0,2.0,81,0.00,,,0.52,Wunderground v.1.15,2013-05-03 04:22:00,
2013-05-02 23:32:00,37.1,31.8,30.48,NW,308,2.0,10.0,81,0.00,,,0.52,Wunderground v.1.15,2013-05-03 04:32:00,
2013-05-02 23:42:00,37.0,31.7,30.47,NW,321,2.0,10.0,81,0.00,,,0.52,Wunderground v.1.15,2013-05-03 04:42:00,
2013-05-02 23:51:00,36.7,31.4,30.47,WNW,300,2.0,2.0,81,0.00,,,0.52,Wunderground v.1.15,2013-05-03 04:51:00,